sensor_id;sensor_type;location;lat;lon;timestamp;P1;durP1;ratioP1;P2;durP2;ratioP2
19861;SDS011;10093;48.148;8.542;2023-06-19T00:00:30;10.35;;;8.57;;
19861;SDS011;10093;48.148;8.542;2023-06-19T00:02:55;9.50;;;8.52;;
19861;SDS011;10093;48.148;8.542;2023-06-19T00:05:21;9.63;;;8.50;;
19861;SDS011;10093;48.148;8.542;2023-06-19T00:07:48;10.00;;;8.60;;
19861;SDS011;10093;48.148;8.542;2023-06-19T00:10:14;9.13;;;8.20;;
19861;SDS011;10093;48.148;8.542;2023-06-19T00:12:40;9.02;;;8.23;;
19861;SDS011;10093;48.148;8.542;2023-06-19T00:15:06;9.30;;;8.25;;
19861;SDS011;10093;48.148;8.542;2023-06-19T00:17:34;10.60;;;8.65;;
19861;SDS011;10093;48.148;8.542;2023-06-19T00:20:02;8.80;;;8.00;;
19861;SDS011;10093;48.148;8.542;2023-06-19T00:22:29;10.30;;;8.70;;
19861;SDS011;10093;48.148;8.542;2023-06-19T00:24:54;10.60;;;7.88;;
19861;SDS011;10093;48.148;8.542;2023-06-19T00:27:20;8.90;;;8.00;;
19861;SDS011;10093;48.148;8.542;2023-06-19T00:29:45;10.02;;;7.80;;
19861;SDS011;10093;48.148;8.542;2023-06-19T00:32:11;8.50;;;7.70;;
19861;SDS011;10093;48.148;8.542;2023-06-19T00:34:37;9.10;;;7.88;;
19861;SDS011;10093;48.148;8.542;2023-06-19T00:37:03;8.15;;;7.38;;
19861;SDS011;10093;48.148;8.542;2023-06-19T00:39:29;8.93;;;8.13;;
19861;SDS011;10093;48.148;8.542;2023-06-19T00:41:55;8.05;;;7.32;;
19861;SDS011;10093;48.148;8.542;2023-06-19T00:44:21;7.78;;;7.07;;
19861;SDS011;10093;48.148;8.542;2023-06-19T00:46:47;9.00;;;6.75;;
19861;SDS011;10093;48.148;8.542;2023-06-19T00:49:16;9.07;;;6.57;;
19861;SDS011;10093;48.148;8.542;2023-06-19T00:51:42;7.15;;;6.22;;
19861;SDS011;10093;48.148;8.542;2023-06-19T00:54:08;6.32;;;5.72;;
19861;SDS011;10093;48.148;8.542;2023-06-19T00:56:34;6.00;;;5.45;;
19861;SDS011;10093;48.148;8.542;2023-06-19T00:59:02;6.60;;;5.00;;
19861;SDS011;10093;48.148;8.542;2023-06-19T01:01:32;8.18;;;4.70;;
19861;SDS011;10093;48.148;8.542;2023-06-19T01:03:58;6.57;;;4.57;;
19861;SDS011;10093;48.148;8.542;2023-06-19T01:06:25;6.60;;;4.57;;
19861;SDS011;10093;48.148;8.542;2023-06-19T01:09:04;4.55;;;4.13;;
19861;SDS011;10093;48.148;8.542;2023-06-19T01:11:33;5.15;;;4.53;;
19861;SDS011;10093;48.148;8.542;2023-06-19T01:14:17;6.07;;;4.22;;
19861;SDS011;10093;48.148;8.542;2023-06-19T01:16:46;6.72;;;4.25;;
19861;SDS011;10093;48.148;8.542;2023-06-19T01:19:15;4.85;;;4.18;;
19861;SDS011;10093;48.148;8.542;2023-06-19T01:21:44;4.57;;;3.60;;
19861;SDS011;10093;48.148;8.542;2023-06-19T01:24:10;5.35;;;3.28;;
19861;SDS011;10093;48.148;8.542;2023-06-19T01:26:36;5.03;;;3.35;;
19861;SDS011;10093;48.148;8.542;2023-06-19T01:29:01;4.00;;;3.60;;
19861;SDS011;10093;48.148;8.542;2023-06-19T01:33:58;4.50;;;2.67;;
19861;SDS011;10093;48.148;8.542;2023-06-19T01:36:28;3.05;;;2.83;;
19861;SDS011;10093;48.148;8.542;2023-06-19T01:38:54;3.40;;;2.95;;
19861;SDS011;10093;48.148;8.542;2023-06-19T01:41:23;3.80;;;3.40;;
19861;SDS011;10093;48.148;8.542;2023-06-19T01:43:49;3.10;;;2.72;;
19861;SDS011;10093;48.148;8.542;2023-06-19T01:46:16;4.68;;;3.15;;
19861;SDS011;10093;48.148;8.542;2023-06-19T01:48:41;3.13;;;2.88;;
19861;SDS011;10093;48.148;8.542;2023-06-19T01:51:07;3.50;;;3.20;;
19861;SDS011;10093;48.148;8.542;2023-06-19T01:53:33;5.43;;;3.22;;
19861;SDS011;10093;48.148;8.542;2023-06-19T01:56:02;3.70;;;2.95;;
19861;SDS011;10093;48.148;8.542;2023-06-19T01:58:28;3.33;;;2.80;;
19861;SDS011;10093;48.148;8.542;2023-06-19T02:00:53;3.38;;;2.60;;
19861;SDS011;10093;48.148;8.542;2023-06-19T02:03:19;2.97;;;2.67;;
19861;SDS011;10093;48.148;8.542;2023-06-19T02:05:46;3.55;;;2.88;;
19861;SDS011;10093;48.148;8.542;2023-06-19T02:08:11;2.63;;;2.42;;
19861;SDS011;10093;48.148;8.542;2023-06-19T02:10:37;2.70;;;2.50;;
19861;SDS011;10093;48.148;8.542;2023-06-19T02:13:02;4.75;;;2.75;;
19861;SDS011;10093;48.148;8.542;2023-06-19T02:15:28;3.58;;;2.90;;
19861;SDS011;10093;48.148;8.542;2023-06-19T02:17:56;3.75;;;2.58;;
19861;SDS011;10093;48.148;8.542;2023-06-19T02:20:22;2.60;;;2.45;;
19861;SDS011;10093;48.148;8.542;2023-06-19T02:22:52;3.70;;;2.92;;
19861;SDS011;10093;48.148;8.542;2023-06-19T02:25:18;4.88;;;2.78;;
19861;SDS011;10093;48.148;8.542;2023-06-19T02:27:44;2.70;;;2.50;;
19861;SDS011;10093;48.148;8.542;2023-06-19T02:30:10;3.55;;;3.25;;
19861;SDS011;10093;48.148;8.542;2023-06-19T02:32:36;2.88;;;2.67;;
19861;SDS011;10093;48.148;8.542;2023-06-19T02:35:02;3.85;;;3.08;;
19861;SDS011;10093;48.148;8.542;2023-06-19T02:37:35;2.83;;;2.58;;
19861;SDS011;10093;48.148;8.542;2023-06-19T02:40:02;2.80;;;2.60;;
19861;SDS011;10093;48.148;8.542;2023-06-19T02:42:29;3.50;;;2.65;;
19861;SDS011;10093;48.148;8.542;2023-06-19T02:44:55;3.00;;;2.80;;
19861;SDS011;10093;48.148;8.542;2023-06-19T02:47:27;4.32;;;2.97;;
19861;SDS011;10093;48.148;8.542;2023-06-19T02:49:54;2.80;;;2.53;;
19861;SDS011;10093;48.148;8.542;2023-06-19T02:52:19;3.13;;;2.80;;
19861;SDS011;10093;48.148;8.542;2023-06-19T02:54:46;4.80;;;3.20;;
19861;SDS011;10093;48.148;8.542;2023-06-19T02:57:11;3.63;;;2.83;;
19861;SDS011;10093;48.148;8.542;2023-06-19T02:59:37;3.40;;;3.10;;
19861;SDS011;10093;48.148;8.542;2023-06-19T03:02:03;3.60;;;2.90;;
19861;SDS011;10093;48.148;8.542;2023-06-19T03:04:28;4.20;;;3.13;;
19861;SDS011;10093;48.148;8.542;2023-06-19T03:06:54;3.60;;;2.80;;
19861;SDS011;10093;48.148;8.542;2023-06-19T03:09:20;3.00;;;2.70;;
19861;SDS011;10093;48.148;8.542;2023-06-19T03:11:45;2.65;;;2.40;;
19861;SDS011;10093;48.148;8.542;2023-06-19T03:14:11;3.35;;;3.05;;
19861;SDS011;10093;48.148;8.542;2023-06-19T03:16:36;3.38;;;3.08;;
19861;SDS011;10093;48.148;8.542;2023-06-19T03:19:02;2.92;;;2.50;;
19861;SDS011;10093;48.148;8.542;2023-06-19T03:21:28;3.58;;;2.67;;
19861;SDS011;10093;48.148;8.542;2023-06-19T03:23:53;6.25;;;3.60;;
19861;SDS011;10093;48.148;8.542;2023-06-19T03:26:23;7.22;;;3.60;;
19861;SDS011;10093;48.148;8.542;2023-06-19T03:28:49;9.07;;;3.83;;
19861;SDS011;10093;48.148;8.542;2023-06-19T03:31:15;5.68;;;3.40;;
19861;SDS011;10093;48.148;8.542;2023-06-19T03:33:41;6.70;;;3.38;;
19861;SDS011;10093;48.148;8.542;2023-06-19T03:36:06;5.13;;;3.83;;
19861;SDS011;10093;48.148;8.542;2023-06-19T03:38:35;6.63;;;5.05;;
19861;SDS011;10093;48.148;8.542;2023-06-19T03:41:01;6.82;;;4.50;;
19861;SDS011;10093;48.148;8.542;2023-06-19T03:43:27;7.38;;;4.10;;
19861;SDS011;10093;48.148;8.542;2023-06-19T03:45:52;4.53;;;4.13;;
19861;SDS011;10093;48.148;8.542;2023-06-19T03:48:18;6.72;;;4.47;;
19861;SDS011;10093;48.148;8.542;2023-06-19T03:50:44;4.38;;;3.95;;
19861;SDS011;10093;48.148;8.542;2023-06-19T03:53:10;4.90;;;4.20;;
19861;SDS011;10093;48.148;8.542;2023-06-19T03:55:35;5.30;;;4.80;;
19861;SDS011;10093;48.148;8.542;2023-06-19T03:58:01;8.23;;;5.07;;
19861;SDS011;10093;48.148;8.542;2023-06-19T04:00:26;5.57;;;4.75;;
19861;SDS011;10093;48.148;8.542;2023-06-19T04:02:52;5.45;;;4.28;;
19861;SDS011;10093;48.148;8.542;2023-06-19T04:05:18;11.63;;;5.80;;
19861;SDS011;10093;48.148;8.542;2023-06-19T04:07:44;8.13;;;5.38;;
19861;SDS011;10093;48.148;8.542;2023-06-19T04:10:10;8.60;;;6.72;;
19861;SDS011;10093;48.148;8.542;2023-06-19T04:12:39;8.30;;;5.82;;
19861;SDS011;10093;48.148;8.542;2023-06-19T04:15:05;7.45;;;5.40;;
19861;SDS011;10093;48.148;8.542;2023-06-19T04:17:31;7.75;;;5.55;;
19861;SDS011;10093;48.148;8.542;2023-06-19T04:19:57;5.80;;;4.90;;
19861;SDS011;10093;48.148;8.542;2023-06-19T04:22:23;6.15;;;4.72;;
19861;SDS011;10093;48.148;8.542;2023-06-19T04:24:48;6.82;;;5.40;;
19861;SDS011;10093;48.148;8.542;2023-06-19T04:27:14;10.85;;;5.28;;
19861;SDS011;10093;48.148;8.542;2023-06-19T04:29:40;5.40;;;4.70;;
19861;SDS011;10093;48.148;8.542;2023-06-19T04:32:05;7.88;;;5.15;;
19861;SDS011;10093;48.148;8.542;2023-06-19T04:34:36;7.18;;;5.47;;
19861;SDS011;10093;48.148;8.542;2023-06-19T04:37:03;6.43;;;4.75;;
19861;SDS011;10093;48.148;8.542;2023-06-19T04:39:29;7.38;;;5.30;;
19861;SDS011;10093;48.148;8.542;2023-06-19T04:41:55;6.80;;;6.10;;
19861;SDS011;10093;48.148;8.542;2023-06-19T04:44:20;9.20;;;6.15;;
19861;SDS011;10093;48.148;8.542;2023-06-19T04:46:46;9.45;;;6.15;;
19861;SDS011;10093;48.148;8.542;2023-06-19T04:49:12;6.18;;;5.57;;
19861;SDS011;10093;48.148;8.542;2023-06-19T04:51:38;7.47;;;5.80;;
19861;SDS011;10093;48.148;8.542;2023-06-19T04:54:05;5.70;;;4.80;;
19861;SDS011;10093;48.148;8.542;2023-06-19T04:56:31;6.07;;;5.43;;
19861;SDS011;10093;48.148;8.542;2023-06-19T04:58:57;6.50;;;4.97;;
19861;SDS011;10093;48.148;8.542;2023-06-19T05:01:24;5.32;;;4.53;;
19861;SDS011;10093;48.148;8.542;2023-06-19T05:03:55;6.75;;;5.22;;
19861;SDS011;10093;48.148;8.542;2023-06-19T05:06:25;5.75;;;5.20;;
19861;SDS011;10093;48.148;8.542;2023-06-19T05:08:51;5.25;;;4.70;;
19861;SDS011;10093;48.148;8.542;2023-06-19T05:11:17;5.15;;;4.65;;
19861;SDS011;10093;48.148;8.542;2023-06-19T05:13:43;4.93;;;3.97;;
19861;SDS011;10093;48.148;8.542;2023-06-19T05:16:08;4.35;;;3.75;;
19861;SDS011;10093;48.148;8.542;2023-06-19T05:18:34;5.38;;;4.10;;
19861;SDS011;10093;48.148;8.542;2023-06-19T05:21:00;4.10;;;3.80;;
19861;SDS011;10093;48.148;8.542;2023-06-19T05:23:25;3.80;;;3.50;;
19861;SDS011;10093;48.148;8.542;2023-06-19T05:25:51;3.80;;;3.50;;
19861;SDS011;10093;48.148;8.542;2023-06-19T05:28:17;5.35;;;4.03;;
19861;SDS011;10093;48.148;8.542;2023-06-19T05:30:42;4.50;;;4.10;;
19861;SDS011;10093;48.148;8.542;2023-06-19T05:33:08;5.63;;;3.92;;
19861;SDS011;10093;48.148;8.542;2023-06-19T05:35:34;4.68;;;4.22;;
19861;SDS011;10093;48.148;8.542;2023-06-19T05:38:00;4.03;;;3.70;;
19861;SDS011;10093;48.148;8.542;2023-06-19T05:40:25;4.00;;;3.65;;
19861;SDS011;10093;48.148;8.542;2023-06-19T05:42:51;5.15;;;3.97;;
19861;SDS011;10093;48.148;8.542;2023-06-19T05:45:16;3.47;;;3.08;;
19861;SDS011;10093;48.148;8.542;2023-06-19T05:47:42;4.40;;;4.00;;
19861;SDS011;10093;48.148;8.542;2023-06-19T05:50:08;3.80;;;3.50;;
19861;SDS011;10093;48.148;8.542;2023-06-19T05:52:34;3.75;;;3.45;;
19861;SDS011;10093;48.148;8.542;2023-06-19T05:54:59;4.50;;;3.55;;
19861;SDS011;10093;48.148;8.542;2023-06-19T05:57:25;5.15;;;3.65;;
19861;SDS011;10093;48.148;8.542;2023-06-19T05:59:51;6.75;;;4.20;;
19861;SDS011;10093;48.148;8.542;2023-06-19T06:02:17;4.78;;;3.97;;
19861;SDS011;10093;48.148;8.542;2023-06-19T06:04:45;4.05;;;3.72;;
19861;SDS011;10093;48.148;8.542;2023-06-19T06:07:11;4.05;;;3.75;;
19861;SDS011;10093;48.148;8.542;2023-06-19T06:09:37;8.88;;;3.80;;
19861;SDS011;10093;48.148;8.542;2023-06-19T06:12:02;4.45;;;3.25;;
19861;SDS011;10093;48.148;8.542;2023-06-19T06:14:29;4.03;;;3.72;;
19861;SDS011;10093;48.148;8.542;2023-06-19T06:16:54;3.90;;;3.60;;
19861;SDS011;10093;48.148;8.542;2023-06-19T06:19:20;4.43;;;3.92;;
19861;SDS011;10093;48.148;8.542;2023-06-19T06:21:49;3.90;;;3.60;;
19861;SDS011;10093;48.148;8.542;2023-06-19T06:24:15;5.05;;;3.60;;
19861;SDS011;10093;48.148;8.542;2023-06-19T06:26:40;4.13;;;3.80;;
19861;SDS011;10093;48.148;8.542;2023-06-19T06:29:07;3.58;;;3.28;;
19861;SDS011;10093;48.148;8.542;2023-06-19T06:31:33;4.60;;;4.20;;
19861;SDS011;10093;48.148;8.542;2023-06-19T06:33:58;4.22;;;3.83;;
19861;SDS011;10093;48.148;8.542;2023-06-19T06:36:24;4.82;;;4.28;;
19861;SDS011;10093;48.148;8.542;2023-06-19T06:38:50;7.05;;;4.45;;
19861;SDS011;10093;48.148;8.542;2023-06-19T06:41:16;5.03;;;4.63;;
19861;SDS011;10093;48.148;8.542;2023-06-19T06:43:42;5.45;;;4.70;;
19861;SDS011;10093;48.148;8.542;2023-06-19T06:46:10;5.32;;;4.82;;
19861;SDS011;10093;48.148;8.542;2023-06-19T06:48:36;5.70;;;5.03;;
19861;SDS011;10093;48.148;8.542;2023-06-19T06:51:02;5.78;;;5.18;;
19861;SDS011;10093;48.148;8.542;2023-06-19T06:53:28;6.45;;;5.85;;
19861;SDS011;10093;48.148;8.542;2023-06-19T06:55:54;6.40;;;5.72;;
19861;SDS011;10093;48.148;8.542;2023-06-19T06:58:20;11.13;;;5.85;;
19861;SDS011;10093;48.148;8.542;2023-06-19T07:00:46;8.60;;;5.65;;
19861;SDS011;10093;48.148;8.542;2023-06-19T07:03:12;9.68;;;5.93;;
19861;SDS011;10093;48.148;8.542;2023-06-19T07:05:38;6.47;;;5.50;;
19861;SDS011;10093;48.148;8.542;2023-06-19T07:08:04;5.30;;;4.88;;
19861;SDS011;10093;48.148;8.542;2023-06-19T07:10:30;5.22;;;4.70;;
19861;SDS011;10093;48.148;8.542;2023-06-19T07:12:55;5.38;;;4.88;;
19861;SDS011;10093;48.148;8.542;2023-06-19T07:15:21;5.78;;;4.90;;
19861;SDS011;10093;48.148;8.542;2023-06-19T07:17:47;6.28;;;5.68;;
19861;SDS011;10093;48.148;8.542;2023-06-19T07:20:13;5.90;;;5.32;;
19861;SDS011;10093;48.148;8.542;2023-06-19T07:22:39;7.65;;;5.30;;
19861;SDS011;10093;48.148;8.542;2023-06-19T07:25:05;5.35;;;4.95;;
19861;SDS011;10093;48.148;8.542;2023-06-19T07:27:31;5.30;;;4.80;;
19861;SDS011;10093;48.148;8.542;2023-06-19T07:29:57;5.47;;;5.00;;
19861;SDS011;10093;48.148;8.542;2023-06-19T07:32:22;6.38;;;4.97;;
19861;SDS011;10093;48.148;8.542;2023-06-19T07:34:48;5.80;;;5.20;;
19861;SDS011;10093;48.148;8.542;2023-06-19T07:37:14;5.32;;;4.90;;
19861;SDS011;10093;48.148;8.542;2023-06-19T07:39:49;8.20;;;4.80;;
19861;SDS011;10093;48.148;8.542;2023-06-19T07:42:16;5.43;;;4.72;;
19861;SDS011;10093;48.148;8.542;2023-06-19T07:44:45;4.75;;;4.35;;
19861;SDS011;10093;48.148;8.542;2023-06-19T07:47:11;6.10;;;5.50;;
19861;SDS011;10093;48.148;8.542;2023-06-19T07:49:38;5.28;;;4.82;;
19861;SDS011;10093;48.148;8.542;2023-06-19T07:52:04;5.10;;;4.70;;
19861;SDS011;10093;48.148;8.542;2023-06-19T07:54:30;5.68;;;5.18;;
19861;SDS011;10093;48.148;8.542;2023-06-19T07:56:58;8.90;;;5.32;;
19861;SDS011;10093;48.148;8.542;2023-06-19T07:59:24;5.80;;;5.30;;
19861;SDS011;10093;48.148;8.542;2023-06-19T08:01:49;6.70;;;5.07;;
19861;SDS011;10093;48.148;8.542;2023-06-19T08:04:15;5.45;;;5.03;;
19861;SDS011;10093;48.148;8.542;2023-06-19T08:06:40;4.85;;;4.45;;
19861;SDS011;10093;48.148;8.542;2023-06-19T08:09:06;5.93;;;4.50;;
19861;SDS011;10093;48.148;8.542;2023-06-19T08:11:32;6.97;;;4.40;;
19861;SDS011;10093;48.148;8.542;2023-06-19T08:13:57;7.68;;;4.13;;
19861;SDS011;10093;48.148;8.542;2023-06-19T08:16:24;5.15;;;4.53;;
19861;SDS011;10093;48.148;8.542;2023-06-19T08:18:51;7.18;;;4.85;;
19861;SDS011;10093;48.148;8.542;2023-06-19T08:21:17;10.00;;;5.00;;
19861;SDS011;10093;48.148;8.542;2023-06-19T08:23:42;5.85;;;4.88;;
19861;SDS011;10093;48.148;8.542;2023-06-19T08:26:09;8.15;;;4.78;;
19861;SDS011;10093;48.148;8.542;2023-06-19T08:28:35;6.45;;;5.25;;
19861;SDS011;10093;48.148;8.542;2023-06-19T08:31:02;7.18;;;5.38;;
19861;SDS011;10093;48.148;8.542;2023-06-19T08:33:27;5.78;;;4.90;;
19861;SDS011;10093;48.148;8.542;2023-06-19T08:35:53;5.32;;;4.13;;
19861;SDS011;10093;48.148;8.542;2023-06-19T08:38:18;4.32;;;3.97;;
19861;SDS011;10093;48.148;8.542;2023-06-19T08:40:44;6.50;;;4.30;;
19861;SDS011;10093;48.148;8.542;2023-06-19T08:43:10;4.50;;;4.03;;
19861;SDS011;10093;48.148;8.542;2023-06-19T08:45:36;5.10;;;4.13;;
19861;SDS011;10093;48.148;8.542;2023-06-19T08:48:02;4.82;;;4.20;;
19861;SDS011;10093;48.148;8.542;2023-06-19T08:50:29;7.57;;;4.30;;
19861;SDS011;10093;48.148;8.542;2023-06-19T08:52:56;4.45;;;4.15;;
19861;SDS011;10093;48.148;8.542;2023-06-19T08:55:22;4.88;;;4.47;;
19861;SDS011;10093;48.148;8.542;2023-06-19T08:57:48;5.18;;;4.68;;
19861;SDS011;10093;48.148;8.542;2023-06-19T09:00:22;8.80;;;4.93;;
19861;SDS011;10093;48.148;8.542;2023-06-19T09:02:50;6.57;;;4.50;;
19861;SDS011;10093;48.148;8.542;2023-06-19T09:05:16;6.35;;;4.75;;
19861;SDS011;10093;48.148;8.542;2023-06-19T09:07:43;4.90;;;4.50;;
19861;SDS011;10093;48.148;8.542;2023-06-19T09:10:16;5.35;;;4.50;;
19861;SDS011;10093;48.148;8.542;2023-06-19T09:12:43;6.30;;;4.22;;
19861;SDS011;10093;48.148;8.542;2023-06-19T09:15:21;6.90;;;4.40;;
19861;SDS011;10093;48.148;8.542;2023-06-19T09:17:48;4.53;;;4.13;;
19861;SDS011;10093;48.148;8.542;2023-06-19T09:20:42;4.80;;;4.20;;
19861;SDS011;10093;48.148;8.542;2023-06-19T09:23:13;5.30;;;4.10;;
19861;SDS011;10093;48.148;8.542;2023-06-19T09:28:21;4.00;;;3.60;;
19861;SDS011;10093;48.148;8.542;2023-06-19T09:30:58;6.15;;;4.40;;
19861;SDS011;10093;48.148;8.542;2023-06-19T09:33:28;6.25;;;4.20;;
19861;SDS011;10093;48.148;8.542;2023-06-19T09:35:56;4.03;;;3.65;;
19861;SDS011;10093;48.148;8.542;2023-06-19T09:38:26;5.05;;;4.32;;
19861;SDS011;10093;48.148;8.542;2023-06-19T09:40:53;4.75;;;3.80;;
19861;SDS011;10093;48.148;8.542;2023-06-19T09:43:20;5.35;;;3.78;;
19861;SDS011;10093;48.148;8.542;2023-06-19T09:45:49;5.22;;;3.83;;
19861;SDS011;10093;48.148;8.542;2023-06-19T09:48:17;4.53;;;4.13;;
19861;SDS011;10093;48.148;8.542;2023-06-19T09:50:46;6.70;;;4.22;;
19861;SDS011;10093;48.148;8.542;2023-06-19T09:53:15;4.82;;;4.20;;
19861;SDS011;10093;48.148;8.542;2023-06-19T09:55:42;4.28;;;3.90;;
19861;SDS011;10093;48.148;8.542;2023-06-19T09:58:08;6.53;;;3.70;;
19861;SDS011;10093;48.148;8.542;2023-06-19T10:00:35;7.30;;;4.18;;
19861;SDS011;10093;48.148;8.542;2023-06-19T10:03:02;4.93;;;3.80;;
19861;SDS011;10093;48.148;8.542;2023-06-19T10:05:33;9.60;;;4.43;;
19861;SDS011;10093;48.148;8.542;2023-06-19T10:08:01;4.13;;;3.65;;
19861;SDS011;10093;48.148;8.542;2023-06-19T10:10:29;5.78;;;3.70;;
19861;SDS011;10093;48.148;8.542;2023-06-19T10:12:55;5.53;;;3.40;;
19861;SDS011;10093;48.148;8.542;2023-06-19T10:15:23;6.90;;;4.15;;
19861;SDS011;10093;48.148;8.542;2023-06-19T10:17:52;5.47;;;3.53;;
19861;SDS011;10093;48.148;8.542;2023-06-19T10:20:27;5.47;;;3.87;;
19861;SDS011;10093;48.148;8.542;2023-06-19T10:25:56;3.47;;;3.17;;
19861;SDS011;10093;48.148;8.542;2023-06-19T10:28:30;4.10;;;2.90;;
19861;SDS011;10093;48.148;8.542;2023-06-19T10:30:58;3.30;;;3.00;;
19861;SDS011;10093;48.148;8.542;2023-06-19T10:33:25;3.63;;;3.20;;
19861;SDS011;10093;48.148;8.542;2023-06-19T10:35:52;3.65;;;3.10;;
19861;SDS011;10093;48.148;8.542;2023-06-19T10:38:19;3.53;;;3.03;;
19861;SDS011;10093;48.148;8.542;2023-06-19T10:40:44;3.53;;;3.03;;
19861;SDS011;10093;48.148;8.542;2023-06-19T10:43:31;3.30;;;2.80;;
19861;SDS011;10093;48.148;8.542;2023-06-19T10:45:57;7.40;;;3.22;;
19861;SDS011;10093;48.148;8.542;2023-06-19T10:48:24;6.22;;;3.00;;
19861;SDS011;10093;48.148;8.542;2023-06-19T10:50:50;3.00;;;2.65;;
19861;SDS011;10093;48.148;8.542;2023-06-19T10:53:30;3.25;;;3.05;;
19861;SDS011;10093;48.148;8.542;2023-06-19T10:56:00;3.30;;;3.00;;
19861;SDS011;10093;48.148;8.542;2023-06-19T10:58:27;3.83;;;2.55;;
19861;SDS011;10093;48.148;8.542;2023-06-19T11:00:54;4.47;;;2.53;;
19861;SDS011;10093;48.148;8.542;2023-06-19T11:03:20;4.00;;;2.40;;
19861;SDS011;10093;48.148;8.542;2023-06-19T11:05:46;4.45;;;2.88;;
19861;SDS011;10093;48.148;8.542;2023-06-19T11:08:19;3.72;;;2.80;;
19861;SDS011;10093;48.148;8.542;2023-06-19T11:10:46;3.13;;;2.70;;
19861;SDS011;10093;48.148;8.542;2023-06-19T11:13:15;3.17;;;2.70;;
19861;SDS011;10093;48.148;8.542;2023-06-19T11:15:42;2.70;;;2.50;;
19861;SDS011;10093;48.148;8.542;2023-06-19T11:18:08;3.47;;;2.72;;
19861;SDS011;10093;48.148;8.542;2023-06-19T11:20:47;2.80;;;2.60;;
19861;SDS011;10093;48.148;8.542;2023-06-19T11:23:15;3.33;;;3.13;;
19861;SDS011;10093;48.148;8.542;2023-06-19T11:25:42;3.38;;;3.17;;
19861;SDS011;10093;48.148;8.542;2023-06-19T11:28:14;5.50;;;3.15;;
19861;SDS011;10093;48.148;8.542;2023-06-19T11:30:42;5.97;;;3.05;;
19861;SDS011;10093;48.148;8.542;2023-06-19T11:35:54;3.45;;;3.25;;
19861;SDS011;10093;48.148;8.542;2023-06-19T11:38:24;3.50;;;3.20;;
19861;SDS011;10093;48.148;8.542;2023-06-19T11:40:57;3.30;;;3.00;;
19861;SDS011;10093;48.148;8.542;2023-06-19T11:43:29;3.15;;;3.05;;
19861;SDS011;10093;48.148;8.542;2023-06-19T11:46:01;3.58;;;2.60;;
19861;SDS011;10093;48.148;8.542;2023-06-19T11:48:28;3.03;;;2.63;;
19861;SDS011;10093;48.148;8.542;2023-06-19T11:50:53;2.92;;;2.70;;
19861;SDS011;10093;48.148;8.542;2023-06-19T11:53:22;3.08;;;1.90;;
19861;SDS011;10093;48.148;8.542;2023-06-19T11:55:50;2.65;;;2.45;;
19861;SDS011;10093;48.148;8.542;2023-06-19T11:58:16;3.17;;;2.97;;
19861;SDS011;10093;48.148;8.542;2023-06-19T12:00:42;4.45;;;2.55;;
19861;SDS011;10093;48.148;8.542;2023-06-19T12:03:08;3.88;;;2.45;;
19861;SDS011;10093;48.148;8.542;2023-06-19T12:05:34;3.20;;;2.70;;
19861;SDS011;10093;48.148;8.542;2023-06-19T12:08:00;3.00;;;2.80;;
19861;SDS011;10093;48.148;8.542;2023-06-19T12:10:29;3.03;;;2.90;;
19861;SDS011;10093;48.148;8.542;2023-06-19T12:12:55;2.92;;;2.72;;
19861;SDS011;10093;48.148;8.542;2023-06-19T12:15:21;3.75;;;3.47;;
19861;SDS011;10093;48.148;8.542;2023-06-19T12:17:48;4.32;;;3.15;;
19861;SDS011;10093;48.148;8.542;2023-06-19T12:20:14;3.40;;;3.20;;
19861;SDS011;10093;48.148;8.542;2023-06-19T12:22:40;3.08;;;2.95;;
19861;SDS011;10093;48.148;8.542;2023-06-19T12:25:06;4.80;;;3.40;;
19861;SDS011;10093;48.148;8.542;2023-06-19T12:27:32;3.28;;;3.08;;
19861;SDS011;10093;48.148;8.542;2023-06-19T12:29:57;3.22;;;3.03;;
19861;SDS011;10093;48.148;8.542;2023-06-19T12:32:23;3.17;;;2.88;;
19861;SDS011;10093;48.148;8.542;2023-06-19T12:34:49;3.47;;;3.08;;
19861;SDS011;10093;48.148;8.542;2023-06-19T12:37:18;3.85;;;3.47;;
19861;SDS011;10093;48.148;8.542;2023-06-19T12:39:45;6.22;;;3.25;;
19861;SDS011;10093;48.148;8.542;2023-06-19T12:42:11;3.92;;;3.03;;
19861;SDS011;10093;48.148;8.542;2023-06-19T12:44:40;4.60;;;3.05;;
19861;SDS011;10093;48.148;8.542;2023-06-19T12:47:06;4.00;;;3.55;;
19861;SDS011;10093;48.148;8.542;2023-06-19T12:49:33;4.18;;;3.15;;
19861;SDS011;10093;48.148;8.542;2023-06-19T12:51:59;3.75;;;3.35;;
19861;SDS011;10093;48.148;8.542;2023-06-19T12:54:25;3.80;;;3.50;;
19861;SDS011;10093;48.148;8.542;2023-06-19T12:56:51;7.45;;;3.90;;
19861;SDS011;10093;48.148;8.542;2023-06-19T12:59:16;3.78;;;3.47;;
19861;SDS011;10093;48.148;8.542;2023-06-19T13:01:42;4.18;;;3.60;;
19861;SDS011;10093;48.148;8.542;2023-06-19T13:04:08;8.10;;;4.03;;
19861;SDS011;10093;48.148;8.542;2023-06-19T13:06:35;8.27;;;3.60;;
19861;SDS011;10093;48.148;8.542;2023-06-19T13:09:01;3.97;;;3.53;;
19861;SDS011;10093;48.148;8.542;2023-06-19T13:11:27;7.57;;;3.63;;
19861;SDS011;10093;48.148;8.542;2023-06-19T13:13:53;3.88;;;3.05;;
19861;SDS011;10093;48.148;8.542;2023-06-19T13:16:18;9.52;;;3.63;;
19861;SDS011;10093;48.148;8.542;2023-06-19T13:18:44;5.57;;;3.40;;
19861;SDS011;10093;48.148;8.542;2023-06-19T13:21:10;3.65;;;3.20;;
19861;SDS011;10093;48.148;8.542;2023-06-19T13:23:36;4.53;;;3.80;;
19861;SDS011;10093;48.148;8.542;2023-06-19T13:26:02;4.28;;;3.90;;
19861;SDS011;10093;48.148;8.542;2023-06-19T13:28:28;4.28;;;3.50;;
19861;SDS011;10093;48.148;8.542;2023-06-19T13:30:53;5.63;;;4.03;;
19861;SDS011;10093;48.148;8.542;2023-06-19T13:33:19;3.90;;;3.60;;
19861;SDS011;10093;48.148;8.542;2023-06-19T13:35:45;3.67;;;3.38;;
19861;SDS011;10093;48.148;8.542;2023-06-19T13:38:10;4.43;;;3.42;;
19861;SDS011;10093;48.148;8.542;2023-06-19T13:40:36;4.10;;;3.78;;
19861;SDS011;10093;48.148;8.542;2023-06-19T13:43:02;6.82;;;3.72;;
19861;SDS011;10093;48.148;8.542;2023-06-19T13:45:28;4.05;;;3.65;;
19861;SDS011;10093;48.148;8.542;2023-06-19T13:47:55;4.43;;;3.55;;
19861;SDS011;10093;48.148;8.542;2023-06-19T13:50:22;5.10;;;4.03;;
19861;SDS011;10093;48.148;8.542;2023-06-19T13:52:48;4.35;;;3.95;;
19861;SDS011;10093;48.148;8.542;2023-06-19T13:55:14;6.30;;;4.10;;
19861;SDS011;10093;48.148;8.542;2023-06-19T13:57:41;6.45;;;4.25;;
19861;SDS011;10093;48.148;8.542;2023-06-19T14:00:07;6.55;;;4.55;;
19861;SDS011;10093;48.148;8.542;2023-06-19T14:02:35;5.70;;;5.30;;
19861;SDS011;10093;48.148;8.542;2023-06-19T14:05:02;6.22;;;4.90;;
19861;SDS011;10093;48.148;8.542;2023-06-19T14:07:28;11.77;;;6.20;;
19861;SDS011;10093;48.148;8.542;2023-06-19T14:09:54;18.10;;;8.27;;
19861;SDS011;10093;48.148;8.542;2023-06-19T14:12:19;16.40;;;8.40;;
19861;SDS011;10093;48.148;8.542;2023-06-19T14:14:46;18.77;;;9.43;;
19861;SDS011;10093;48.148;8.542;2023-06-19T14:17:13;15.85;;;9.65;;
19861;SDS011;10093;48.148;8.542;2023-06-19T14:19:39;17.75;;;10.02;;
19861;SDS011;10093;48.148;8.542;2023-06-19T14:22:04;18.60;;;9.77;;
19861;SDS011;10093;48.148;8.542;2023-06-19T14:24:30;15.20;;;9.30;;
19861;SDS011;10093;48.148;8.542;2023-06-19T14:26:56;18.02;;;9.32;;
19861;SDS011;10093;48.148;8.542;2023-06-19T14:29:21;22.98;;;10.38;;
19861;SDS011;10093;48.148;8.542;2023-06-19T14:31:47;11.82;;;8.77;;
19861;SDS011;10093;48.148;8.542;2023-06-19T14:34:15;9.25;;;7.53;;
19861;SDS011;10093;48.148;8.542;2023-06-19T14:36:41;8.32;;;6.53;;
19861;SDS011;10093;48.148;8.542;2023-06-19T14:39:06;7.95;;;6.05;;
19861;SDS011;10093;48.148;8.542;2023-06-19T14:41:32;11.20;;;7.75;;
19861;SDS011;10093;48.148;8.542;2023-06-19T14:43:58;14.77;;;7.55;;
19861;SDS011;10093;48.148;8.542;2023-06-19T14:46:23;12.30;;;6.38;;
19861;SDS011;10093;48.148;8.542;2023-06-19T14:48:49;9.57;;;6.43;;
19861;SDS011;10093;48.148;8.542;2023-06-19T14:51:14;8.32;;;6.43;;
19861;SDS011;10093;48.148;8.542;2023-06-19T14:53:40;15.93;;;5.97;;